sensor_id;sensor_type;location;lat;lon;timestamp;pressure;altitude;pressure_sealevel;temperature;humidity
73234;BME280;62293;-26.174;27.908;2022-08-11T00:00:49;83841.20;;;23.11;20.02
73234;BME280;62293;-26.174;27.908;2022-08-11T00:03:15;83839.54;;;23.32;19.84
73234;BME280;62293;-26.174;27.908;2022-08-11T00:05:45;83839.49;;;23.38;19.92
73234;BME280;62293;-26.174;27.908;2022-08-11T00:08:06;83837.28;;;23.36;20.10
73234;BME280;62293;-26.174;27.908;2022-08-11T00:10:31;83835.44;;;23.28;19.82
73234;BME280;62293;-26.174;27.908;2022-08-11T00:12:59;83834.60;;;23.38;20.24
73234;BME280;62293;-26.174;27.908;2022-08-11T00:15:22;83833.74;;;23.03;20.22
73234;BME280;62293;-26.174;27.908;2022-08-11T00:17:47;83834.44;;;23.37;20.03
73234;BME280;62293;-26.174;27.908;2022-08-11T00:20:16;83832.93;;;23.04;20.20
73234;BME280;62293;-26.174;27.908;2022-08-11T00:22:40;83825.45;;;22.63;20.61
73234;BME280;62293;-26.174;27.908;2022-08-11T00:25:09;83826.19;;;22.91;20.39
73234;BME280;62293;-26.174;27.908;2022-08-11T00:27:34;83828.11;;;22.81;20.33
73234;BME280;62293;-26.174;27.908;2022-08-11T00:29:55;83827.38;;;22.81;20.73
73234;BME280;62293;-26.174;27.908;2022-08-11T00:32:20;83826.43;;;22.91;20.59
73234;BME280;62293;-26.174;27.908;2022-08-11T00:34:46;83821.45;;;22.77;20.55
73234;BME280;62293;-26.174;27.908;2022-08-11T00:37:18;83823.17;;;22.80;20.73
73234;BME280;62293;-26.174;27.908;2022-08-11T00:39:42;83823.09;;;22.54;20.69
73234;BME280;62293;-26.174;27.908;2022-08-11T00:42:13;83821.97;;;22.98;20.51
73234;BME280;62293;-26.174;27.908;2022-08-11T00:44:33;83817.67;;;22.82;20.36
73234;BME280;62293;-26.174;27.908;2022-08-11T00:47:04;83817.30;;;22.74;20.54
73234;BME280;62293;-26.174;27.908;2022-08-11T00:49:28;83814.00;;;22.99;20.57
73234;BME280;62293;-26.174;27.908;2022-08-11T00:51:54;83806.89;;;22.94;20.40
73234;BME280;62293;-26.174;27.908;2022-08-11T00:54:23;83802.68;;;22.53;20.59
73234;BME280;62293;-26.174;27.908;2022-08-11T01:01:38;83804.34;;;22.65;20.36
73234;BME280;62293;-26.174;27.908;2022-08-11T01:06:32;83799.08;;;22.54;20.58
73234;BME280;62293;-26.174;27.908;2022-08-11T01:11:16;83789.99;;;22.52;20.51
73234;BME280;62293;-26.174;27.908;2022-08-11T01:13:51;83788.47;;;22.63;20.65
73234;BME280;62293;-26.174;27.908;2022-08-11T01:35:46;83787.67;;;22.56;20.61
73234;BME280;62293;-26.174;27.908;2022-08-11T01:38:00;83784.63;;;22.51;20.67
73234;BME280;62293;-26.174;27.908;2022-08-11T01:40:24;83783.93;;;22.72;20.54
73234;BME280;62293;-26.174;27.908;2022-08-11T01:45:16;83786.36;;;22.65;20.69
73234;BME280;62293;-26.174;27.908;2022-08-11T01:47:36;83786.28;;;22.30;20.83
73234;BME280;62293;-26.174;27.908;2022-08-11T01:50:03;83784.57;;;22.52;20.75
73234;BME280;62293;-26.174;27.908;2022-08-11T01:52:24;83783.66;;;22.48;20.86
73234;BME280;62293;-26.174;27.908;2022-08-11T01:54:51;83777.24;;;22.58;20.71
73234;BME280;62293;-26.174;27.908;2022-08-11T01:57:20;83771.70;;;22.36;20.66
73234;BME280;62293;-26.174;27.908;2022-08-11T01:59:40;83767.08;;;22.41;20.73
73234;BME280;62293;-26.174;27.908;2022-08-11T02:04:33;83768.97;;;22.31;20.57
73234;BME280;62293;-26.174;27.908;2022-08-11T02:07:01;83765.88;;;22.51;20.91
73234;BME280;62293;-26.174;27.908;2022-08-11T02:09:28;83763.26;;;22.38;20.79
73234;BME280;62293;-26.174;27.908;2022-08-11T02:11:45;83759.68;;;22.21;20.76
73234;BME280;62293;-26.174;27.908;2022-08-11T02:14:18;83759.69;;;22.19;20.88
73234;BME280;62293;-26.174;27.908;2022-08-11T02:16:46;83758.79;;;22.47;20.83
73234;BME280;62293;-26.174;27.908;2022-08-11T02:19:09;83762.01;;;22.37;20.99
73234;BME280;62293;-26.174;27.908;2022-08-11T02:21:28;83764.90;;;22.24;20.88
73234;BME280;62293;-26.174;27.908;2022-08-11T02:23:54;83764.29;;;22.03;21.08
73234;BME280;62293;-26.174;27.908;2022-08-11T02:26:21;83765.62;;;22.06;20.87
73234;BME280;62293;-26.174;27.908;2022-08-11T02:28:52;83766.42;;;22.26;21.01
73234;BME280;62293;-26.174;27.908;2022-08-11T02:31:11;83768.29;;;22.10;20.81
73234;BME280;62293;-26.174;27.908;2022-08-11T02:33:30;83768.60;;;22.52;20.76
73234;BME280;62293;-26.174;27.908;2022-08-11T02:36:00;83769.77;;;22.38;20.79
73234;BME280;62293;-26.174;27.908;2022-08-11T02:38:27;83769.22;;;22.21;20.88
73234;BME280;62293;-26.174;27.908;2022-08-11T02:40:52;83767.25;;;22.34;20.98
73234;BME280;62293;-26.174;27.908;2022-08-11T02:43:25;83763.38;;;21.90;20.92
73234;BME280;62293;-26.174;27.908;2022-08-11T02:45:48;83761.61;;;22.64;20.99
73234;BME280;62293;-26.174;27.908;2022-08-11T02:48:09;83763.44;;;22.18;21.09
73234;BME280;62293;-26.174;27.908;2022-08-11T02:50:29;83766.42;;;22.17;20.77
73234;BME280;62293;-26.174;27.908;2022-08-11T02:52:57;83767.27;;;22.18;20.84
73234;BME280;62293;-26.174;27.908;2022-08-11T02:55:23;83769.12;;;22.63;21.10
73234;BME280;62293;-26.174;27.908;2022-08-11T02:57:50;83769.05;;;22.06;21.01
73234;BME280;62293;-26.174;27.908;2022-08-11T03:00:11;83767.57;;;22.11;20.98
73234;BME280;62293;-26.174;27.908;2022-08-11T03:02:48;83760.96;;;21.94;21.05
73234;BME280;62293;-26.174;27.908;2022-08-11T03:05:16;83762.61;;;21.76;20.91
73234;BME280;62293;-26.174;27.908;2022-08-11T03:07:30;83769.90;;;21.88;21.16
73234;BME280;62293;-26.174;27.908;2022-08-11T03:09:59;83777.40;;;21.88;21.31
73234;BME280;62293;-26.174;27.908;2022-08-11T03:12:21;83778.43;;;21.94;20.92
73234;BME280;62293;-26.174;27.908;2022-08-11T03:14:48;83779.56;;;22.13;20.95
73234;BME280;62293;-26.174;27.908;2022-08-11T03:17:19;83777.01;;;21.97;21.04
73234;BME280;62293;-26.174;27.908;2022-08-11T03:19:45;83772.94;;;21.76;21.10
73234;BME280;62293;-26.174;27.908;2022-08-11T03:22:04;83771.88;;;21.72;21.12
73234;BME280;62293;-26.174;27.908;2022-08-11T03:24:30;83776.82;;;21.65;21.34
73234;BME280;62293;-26.174;27.908;2022-08-11T03:27:01;83781.18;;;21.67;21.32
73234;BME280;62293;-26.174;27.908;2022-08-11T03:29:22;83781.31;;;21.65;21.24
73234;BME280;62293;-26.174;27.908;2022-08-11T03:31:53;83780.86;;;21.59;21.08
73234;BME280;62293;-26.174;27.908;2022-08-11T03:34:08;83781.50;;;21.70;21.32
73234;BME280;62293;-26.174;27.908;2022-08-11T03:39:08;83777.83;;;21.78;21.18
73234;BME280;62293;-26.174;27.908;2022-08-11T03:41:31;83776.88;;;21.85;20.96
73234;BME280;62293;-26.174;27.908;2022-08-11T03:43:57;83779.34;;;21.75;21.14
73234;BME280;62293;-26.174;27.908;2022-08-11T03:46:22;83779.94;;;21.61;21.20
73234;BME280;62293;-26.174;27.908;2022-08-11T03:48:46;83776.71;;;21.71;21.09
73234;BME280;62293;-26.174;27.908;2022-08-11T03:51:14;83776.13;;;21.75;21.24
73234;BME280;62293;-26.174;27.908;2022-08-11T03:53:55;83781.70;;;21.80;21.27
73234;BME280;62293;-26.174;27.908;2022-08-11T03:58:35;83785.61;;;21.84;21.34
73234;BME280;62293;-26.174;27.908;2022-08-11T04:18:04;83786.02;;;21.73;21.16
73234;BME280;62293;-26.174;27.908;2022-08-11T04:20:18;83790.24;;;21.43;21.24
73234;BME280;62293;-26.174;27.908;2022-08-11T04:25:23;83791.88;;;21.74;21.04
73234;BME280;62293;-26.174;27.908;2022-08-11T04:30:04;83800.75;;;21.47;21.24
73234;BME280;62293;-26.174;27.908;2022-08-11T04:32:27;83799.77;;;21.51;21.20
73234;BME280;62293;-26.174;27.908;2022-08-11T04:34:54;83801.94;;;21.90;20.97
73234;BME280;62293;-26.174;27.908;2022-08-11T04:39:53;83809.81;;;21.41;21.05
73234;BME280;62293;-26.174;27.908;2022-08-11T04:42:07;83813.93;;;21.58;21.07
73234;BME280;62293;-26.174;27.908;2022-08-11T04:47:08;83813.67;;;22.01;21.11
73234;BME280;62293;-26.174;27.908;2022-08-11T04:49:37;83813.86;;;21.43;21.09
73234;BME280;62293;-26.174;27.908;2022-08-11T04:54:17;83814.77;;;21.49;21.09
73234;BME280;62293;-26.174;27.908;2022-08-11T04:56:34;83813.98;;;21.97;20.91
73234;BME280;62293;-26.174;27.908;2022-08-11T04:59:12;83813.77;;;22.38;20.58
73234;BME280;62293;-26.174;27.908;2022-08-11T05:01:30;83818.26;;;22.28;20.36
73234;BME280;62293;-26.174;27.908;2022-08-11T05:08:52;83832.25;;;21.81;20.79
73234;BME280;62293;-26.174;27.908;2022-08-11T05:13:32;83833.38;;;21.70;20.91
73234;BME280;62293;-26.174;27.908;2022-08-11T05:15:59;83831.93;;;22.08;21.02
73234;BME280;62293;-26.174;27.908;2022-08-11T05:18:23;83830.06;;;22.04;20.78
73234;BME280;62293;-26.174;27.908;2022-08-11T05:20:51;83828.11;;;21.95;21.07
73234;BME280;62293;-26.174;27.908;2022-08-11T05:23:14;83831.75;;;22.04;20.84
73234;BME280;62293;-26.174;27.908;2022-08-11T05:25:43;83832.27;;;22.50;20.51
73234;BME280;62293;-26.174;27.908;2022-08-11T05:28:08;83836.23;;;23.00;20.31
73234;BME280;62293;-26.174;27.908;2022-08-11T05:30:30;83838.38;;;22.82;20.26
73234;BME280;62293;-26.174;27.908;2022-08-11T05:32:58;83841.54;;;22.60;21.22
73234;BME280;62293;-26.174;27.908;2022-08-11T05:35:28;83845.27;;;22.63;21.22
73234;BME280;62293;-26.174;27.908;2022-08-11T05:37:47;83849.97;;;22.67;21.44
73234;BME280;62293;-26.174;27.908;2022-08-11T05:40:12;83857.76;;;22.61;21.45
73234;BME280;62293;-26.174;27.908;2022-08-11T05:42:41;83860.00;;;22.39;21.08
73234;BME280;62293;-26.174;27.908;2022-08-11T05:45:10;83863.11;;;22.82;21.05
73234;BME280;62293;-26.174;27.908;2022-08-11T05:47:28;83869.44;;;23.11;20.93
73234;BME280;62293;-26.174;27.908;2022-08-11T05:49:54;83873.68;;;22.91;21.38
73234;BME280;62293;-26.174;27.908;2022-08-11T05:52:22;83878.33;;;23.24;21.35
73234;BME280;62293;-26.174;27.908;2022-08-11T05:54:45;83880.25;;;23.43;21.03
73234;BME280;62293;-26.174;27.908;2022-08-11T05:57:18;83883.51;;;23.49;21.01
73234;BME280;62293;-26.174;27.908;2022-08-11T05:59:36;83889.40;;;23.78;20.64
73234;BME280;62293;-26.174;27.908;2022-08-11T06:02:03;83892.51;;;24.33;20.50
73234;BME280;62293;-26.174;27.908;2022-08-11T06:04:28;83892.03;;;24.06;20.38
73234;BME280;62293;-26.174;27.908;2022-08-11T06:06:56;83892.68;;;24.38;20.08
73234;BME280;62293;-26.174;27.908;2022-08-11T06:09:26;83896.76;;;24.35;20.02
73234;BME280;62293;-26.174;27.908;2022-08-11T06:11:43;83899.81;;;25.00;19.89
73234;BME280;62293;-26.174;27.908;2022-08-11T06:14:08;83905.62;;;24.49;19.99
73234;BME280;62293;-26.174;27.908;2022-08-11T06:16:34;83909.33;;;24.39;20.09
73234;BME280;62293;-26.174;27.908;2022-08-11T06:18:59;83910.83;;;24.55;19.97
73234;BME280;62293;-26.174;27.908;2022-08-11T06:21:24;83910.55;;;24.48;20.04
73234;BME280;62293;-26.174;27.908;2022-08-11T06:23:50;83910.10;;;24.49;20.02
73234;BME280;62293;-26.174;27.908;2022-08-11T06:26:15;83911.49;;;24.56;19.98
73234;BME280;62293;-26.174;27.908;2022-08-11T06:28:43;83914.35;;;24.04;20.00
73234;BME280;62293;-26.174;27.908;2022-08-11T06:31:11;83915.83;;;24.21;20.01
73234;BME280;62293;-26.174;27.908;2022-08-11T06:33:36;83919.78;;;24.40;20.01
73234;BME280;62293;-26.174;27.908;2022-08-11T06:36:03;83923.77;;;24.36;20.09
73234;BME280;62293;-26.174;27.908;2022-08-11T06:40:52;83926.94;;;24.11;20.06
73234;BME280;62293;-26.174;27.908;2022-08-11T06:43:19;83925.34;;;24.21;19.99
73234;BME280;62293;-26.174;27.908;2022-08-11T06:45:50;83925.76;;;24.28;19.93
73234;BME280;62293;-26.174;27.908;2022-08-11T06:48:06;83925.05;;;24.04;19.94
73234;BME280;62293;-26.174;27.908;2022-08-11T06:50:32;83927.80;;;24.05;20.02
73234;BME280;62293;-26.174;27.908;2022-08-11T06:52:58;83928.48;;;24.33;19.98
73234;BME280;62293;-26.174;27.908;2022-08-11T06:55:23;83925.34;;;24.60;20.01
73234;BME280;62293;-26.174;27.908;2022-08-11T06:57:47;83925.77;;;24.12;20.04
73234;BME280;62293;-26.174;27.908;2022-08-11T07:00:13;83923.90;;;24.22;19.98
73234;BME280;62293;-26.174;27.908;2022-08-11T07:02:44;83923.66;;;24.28;19.96
73234;BME280;62293;-26.174;27.908;2022-08-11T07:05:07;83929.46;;;24.52;20.05
73234;BME280;62293;-26.174;27.908;2022-08-11T07:10:05;83933.16;;;24.51;19.98
73234;BME280;62293;-26.174;27.908;2022-08-11T07:14:50;83930.52;;;25.43;19.71
73234;BME280;62293;-26.174;27.908;2022-08-11T07:17:13;83931.27;;;24.80;19.68
73234;BME280;62293;-26.174;27.908;2022-08-11T07:19:37;83936.23;;;25.36;19.48
73234;BME280;62293;-26.174;27.908;2022-08-11T07:22:02;83938.11;;;25.16;19.63
73234;BME280;62293;-26.174;27.908;2022-08-11T07:24:29;83939.50;;;25.13;19.68
73234;BME280;62293;-26.174;27.908;2022-08-11T07:26:55;83943.50;;;25.52;19.47
73234;BME280;62293;-26.174;27.908;2022-08-11T07:29:17;83943.46;;;25.41;19.48
73234;BME280;62293;-26.174;27.908;2022-08-11T07:31:45;83944.89;;;25.52;19.33
73234;BME280;62293;-26.174;27.908;2022-08-11T07:34:15;83945.18;;;25.66;19.35
73234;BME280;62293;-26.174;27.908;2022-08-11T07:36:38;83946.94;;;25.67;19.30
73234;BME280;62293;-26.174;27.908;2022-08-11T07:39:00;83945.01;;;25.93;19.10
73234;BME280;62293;-26.174;27.908;2022-08-11T07:41:25;83945.03;;;26.07;18.97
73234;BME280;62293;-26.174;27.908;2022-08-11T07:43:52;83943.67;;;26.21;18.82
73234;BME280;62293;-26.174;27.908;2022-08-11T07:46:15;83943.19;;;25.85;18.84
73234;BME280;62293;-26.174;27.908;2022-08-11T07:48:41;83945.15;;;25.86;18.75
73234;BME280;62293;-26.174;27.908;2022-08-11T07:51:06;83943.91;;;26.10;18.59
73234;BME280;62293;-26.174;27.908;2022-08-11T07:53:34;83947.74;;;26.13;18.53
73234;BME280;62293;-26.174;27.908;2022-08-11T07:55:59;83951.25;;;25.89;18.51
73234;BME280;62293;-26.174;27.908;2022-08-11T07:58:24;83950.49;;;26.19;18.44
73234;BME280;62293;-26.174;27.908;2022-08-11T08:00:50;83949.34;;;26.63;18.16
73234;BME280;62293;-26.174;27.908;2022-08-11T08:03:13;83953.14;;;26.32;18.35
73234;BME280;62293;-26.174;27.908;2022-08-11T08:05:38;83955.71;;;26.36;18.32
73234;BME280;62293;-26.174;27.908;2022-08-11T08:08:04;83952.64;;;26.46;18.14
73234;BME280;62293;-26.174;27.908;2022-08-11T08:10:30;83956.54;;;26.31;18.23
73234;BME280;62293;-26.174;27.908;2022-08-11T08:12:55;83956.55;;;26.69;18.10
73234;BME280;62293;-26.174;27.908;2022-08-11T08:15:21;83952.84;;;26.50;18.06
73234;BME280;62293;-26.174;27.908;2022-08-11T08:17:46;83948.71;;;26.43;18.07
73234;BME280;62293;-26.174;27.908;2022-08-11T08:20:13;83948.35;;;26.58;17.99
73234;BME280;62293;-26.174;27.908;2022-08-11T08:22:37;83946.51;;;26.83;17.81
73234;BME280;62293;-26.174;27.908;2022-08-11T08:25:03;83950.54;;;26.27;17.98
73234;BME280;62293;-26.174;27.908;2022-08-11T08:27:28;83952.72;;;26.95;17.88
73234;BME280;62293;-26.174;27.908;2022-08-11T08:29:54;83953.23;;;26.56;17.89
73234;BME280;62293;-26.174;27.908;2022-08-11T08:32:19;83948.26;;;26.83;17.85
73234;BME280;62293;-26.174;27.908;2022-08-11T08:34:45;83946.86;;;26.90;17.63
73234;BME280;62293;-26.174;27.908;2022-08-11T08:37:10;83943.29;;;26.77;17.68
73234;BME280;62293;-26.174;27.908;2022-08-11T08:39:36;83940.93;;;26.70;17.74
73234;BME280;62293;-26.174;27.908;2022-08-11T08:42:04;83936.97;;;26.59;17.57
73234;BME280;62293;-26.174;27.908;2022-08-11T08:44:27;83931.55;;;27.08;17.36
73234;BME280;62293;-26.174;27.908;2022-08-11T08:46:57;83933.95;;;27.35;17.34
73234;BME280;62293;-26.174;27.908;2022-08-11T08:49:22;83933.17;;;27.25;17.29
73234;BME280;62293;-26.174;27.908;2022-08-11T08:51:44;83932.62;;;27.10;17.32
73234;BME280;62293;-26.174;27.908;2022-08-11T08:54:13;83936.63;;;26.81;17.23
73234;BME280;62293;-26.174;27.908;2022-08-11T08:56:39;83935.10;;;27.28;17.06
73234;BME280;62293;-26.174;27.908;2022-08-11T08:59:02;83933.36;;;27.35;17.14
73234;BME280;62293;-26.174;27.908;2022-08-11T09:01:28;83933.55;;;26.98;17.03
73234;BME280;62293;-26.174;27.908;2022-08-11T09:03:52;83933.74;;;27.33;17.22
73234;BME280;62293;-26.174;27.908;2022-08-11T09:06:18;83932.58;;;27.34;17.18
73234;BME280;62293;-26.174;27.908;2022-08-11T09:08:43;83928.01;;;26.96;17.31
73234;BME280;62293;-26.174;27.908;2022-08-11T09:11:10;83933.10;;;27.31;17.13
73234;BME280;62293;-26.174;27.908;2022-08-11T09:13:35;83932.06;;;27.05;17.11
73234;BME280;62293;-26.174;27.908;2022-08-11T09:16:00;83932.33;;;27.31;16.97
73234;BME280;62293;-26.174;27.908;2022-08-11T09:18:26;83928.31;;;27.24;16.84
73234;BME280;62293;-26.174;27.908;2022-08-11T09:20:52;83920.11;;;27.55;16.85
73234;BME280;62293;-26.174;27.908;2022-08-11T09:23:16;83918.57;;;27.42;16.86
73234;BME280;62293;-26.174;27.908;2022-08-11T09:25:42;83917.40;;;27.72;16.94
73234;BME280;62293;-26.174;27.908;2022-08-11T09:28:10;83913.14;;;27.99;16.67
73234;BME280;62293;-26.174;27.908;2022-08-11T09:30:33;83908.02;;;27.42;16.75
73234;BME280;62293;-26.174;27.908;2022-08-11T09:33:01;83903.51;;;28.15;16.60
73234;BME280;62293;-26.174;27.908;2022-08-11T09:35:26;83892.93;;;27.41;16.76
73234;BME280;62293;-26.174;27.908;2022-08-11T09:37:50;83890.38;;;27.61;16.57
73234;BME280;62293;-26.174;27.908;2022-08-11T09:40:15;83887.09;;;27.46;16.87
73234;BME280;62293;-26.174;27.908;2022-08-11T09:42:40;83882.43;;;27.90;16.57
73234;BME280;62293;-26.174;27.908;2022-08-11T09:45:06;83882.95;;;27.70;16.62
73234;BME280;62293;-26.174;27.908;2022-08-11T09:47:31;83880.24;;;27.69;16.69
73234;BME280;62293;-26.174;27.908;2022-08-11T09:49:58;83881.37;;;28.32;16.62
73234;BME280;62293;-26.174;27.908;2022-08-11T09:52:23;83879.21;;;27.46;16.68
73234;BME280;62293;-26.174;27.908;2022-08-11T09:54:48;83877.08;;;27.31;16.91
73234;BME280;62293;-26.174;27.908;2022-08-11T09:57:13;83872.92;;;27.53;16.81
73234;BME280;62293;-26.174;27.908;2022-08-11T09:59:39;83874.12;;;27.53;16.78
73234;BME280;62293;-26.174;27.908;2022-08-11T10:02:05;83869.00;;;27.56;16.72
73234;BME280;62293;-26.174;27.908;2022-08-11T10:04:37;83866.75;;;27.63;16.68
73234;BME280;62293;-26.174;27.908;2022-08-11T10:06:55;83860.74;;;27.67;16.76
73234;BME280;62293;-26.174;27.908;2022-08-11T10:09:22;83855.68;;;27.82;16.64
73234;BME280;62293;-26.174;27.908;2022-08-11T10:11:46;83852.38;;;27.76;16.70
73234;BME280;62293;-26.174;27.908;2022-08-11T10:14:11;83845.82;;;27.59;16.66
73234;BME280;62293;-26.174;27.908;2022-08-11T10:16:40;83844.51;;;27.88;16.78
73234;BME280;62293;-26.174;27.908;2022-08-11T10:19:03;83839.28;;;28.24;16.43
73234;BME280;62293;-26.174;27.908;2022-08-11T10:21:31;83836.34;;;28.91;16.09
73234;BME280;62293;-26.174;27.908;2022-08-11T10:23:55;83827.05;;;28.43;16.31
73234;BME280;62293;-26.174;27.908;2022-08-11T10:26:20;83827.57;;;28.17;16.45
73234;BME280;62293;-26.174;27.908;2022-08-11T10:28:45;83825.31;;;28.26;16.48
73234;BME280;62293;-26.174;27.908;2022-08-11T10:31:11;83818.28;;;28.54;16.28
73234;BME280;62293;-26.174;27.908;2022-08-11T10:33:37;83818.16;;;28.15;16.30
73234;BME280;62293;-26.174;27.908;2022-08-11T10:36:01;83818.72;;;28.49;16.12
73234;BME280;62293;-26.174;27.908;2022-08-11T10:38:27;83813.08;;;28.29;16.14
73234;BME280;62293;-26.174;27.908;2022-08-11T10:40:53;83809.25;;;28.35;16.08
73234;BME280;62293;-26.174;27.908;2022-08-11T10:43:20;83810.39;;;28.44;16.14
73234;BME280;62293;-26.174;27.908;2022-08-11T10:45:46;83808.42;;;28.31;16.02
73234;BME280;62293;-26.174;27.908;2022-08-11T10:48:28;83801.66;;;28.30;15.92
73234;BME280;62293;-26.174;27.908;2022-08-11T10:55:40;83790.75;;;28.80;15.82
73234;BME280;62293;-26.174;27.908;2022-08-11T10:58:00;83784.93;;;28.35;15.65
73234;BME280;62293;-26.174;27.908;2022-08-11T11:00:17;83783.71;;;28.75;15.74
73234;BME280;62293;-26.174;27.908;2022-08-11T11:02:41;83782.64;;;28.72;15.64
73234;BME280;62293;-26.174;27.908;2022-08-11T11:05:11;83783.20;;;28.44;15.64
73234;BME280;62293;-26.174;27.908;2022-08-11T11:07:38;83776.88;;;28.40;15.84
73234;BME280;62293;-26.174;27.908;2022-08-11T11:10:00;83776.30;;;28.38;15.72
73234;BME280;62293;-26.174;27.908;2022-08-11T11:14:55;83777.55;;;28.71;15.55
73234;BME280;62293;-26.174;27.908;2022-08-11T11:17:15;83776.96;;;28.71;15.37
73234;BME280;62293;-26.174;27.908;2022-08-11T11:22:10;83766.57;;;29.19;15.24
73234;BME280;62293;-26.174;27.908;2022-08-11T11:24:36;83761.07;;;28.95;15.27
73234;BME280;62293;-26.174;27.908;2022-08-11T11:27:03;83759.64;;;29.05;15.34
73234;BME280;62293;-26.174;27.908;2022-08-11T11:29:36;83759.63;;;29.30;15.39
73234;BME280;62293;-26.174;27.908;2022-08-11T11:34:26;83756.98;;;28.92;15.33
73234;BME280;62293;-26.174;27.908;2022-08-11T11:36:44;83752.04;;;28.89;15.24
73234;BME280;62293;-26.174;27.908;2022-08-11T11:39:03;83753.67;;;29.08;15.31
73234;BME280;62293;-26.174;27.908;2022-08-11T11:44:00;83745.78;;;29.09;15.31
73234;BME280;62293;-26.174;27.908;2022-08-11T11:46:20;83744.08;;;29.06;15.29
73234;BME280;62293;-26.174;27.908;2022-08-11T11:48:45;83737.44;;;29.08;15.17
73234;BME280;62293;-26.174;27.908;2022-08-11T11:51:13;83736.58;;;28.76;15.16
73234;BME280;62293;-26.174;27.908;2022-08-11T11:53:39;83736.04;;;29.01;15.22
73234;BME280;62293;-26.174;27.908;2022-08-11T11:56:07;83736.04;;;28.70;15.22
73234;BME280;62293;-26.174;27.908;2022-08-11T12:03:23;83737.19;;;29.04;15.05
73234;BME280;62293;-26.174;27.908;2022-08-11T12:05:50;83730.29;;;29.09;15.13
73234;BME280;62293;-26.174;27.908;2022-08-11T12:08:13;83722.25;;;28.96;15.11
73234;BME280;62293;-26.174;27.908;2022-08-11T12:10:41;83719.09;;;29.10;15.06
73234;BME280;62293;-26.174;27.908;2022-08-11T12:13:06;83716.08;;;29.61;15.00
73234;BME280;62293;-26.174;27.908;2022-08-11T12:15:27;83716.80;;;29.27;14.90
73234;BME280;62293;-26.174;27.908;2022-08-11T12:17:54;83709.69;;;28.83;15.21
73234;BME280;62293;-26.174;27.908;2022-08-11T12:22:49;83706.03;;;29.03;15.17
73234;BME280;62293;-26.174;27.908;2022-08-11T12:30:05;83699.53;;;29.10;15.04
73234;BME280;62293;-26.174;27.908;2022-08-11T12:37:20;83695.27;;;29.02;14.85
73234;BME280;62293;-26.174;27.908;2022-08-11T12:39:49;83694.29;;;29.46;14.61
73234;BME280;62293;-26.174;27.908;2022-08-11T12:42:10;83695.38;;;29.64;14.66
73234;BME280;62293;-26.174;27.908;2022-08-11T12:47:05;83685.56;;;29.81;14.54
73234;BME280;62293;-26.174;27.908;2022-08-11T12:49:23;83683.31;;;29.88;14.56
73234;BME280;62293;-26.174;27.908;2022-08-11T12:51:53;83688.05;;;29.40;14.65
73234;BME280;62293;-26.174;27.908;2022-08-11T12:54:14;83684.73;;;29.71;14.58
73234;BME280;62293;-26.174;27.908;2022-08-11T12:56:47;83684.85;;;29.51;14.81
73234;BME280;62293;-26.174;27.908;2022-08-11T12:59:07;83682.77;;;29.66;14.51
73234;BME280;62293;-26.174;27.908;2022-08-11T13:03:57;83686.71;;;29.75;14.57
73234;BME280;62293;-26.174;27.908;2022-08-11T13:08:47;83682.17;;;30.70;12.39
73234;BME280;62293;-26.174;27.908;2022-08-11T13:11:15;83682.66;;;30.29;12.97
73234;BME280;62293;-26.174;27.908;2022-08-11T13:13:41;83691.93;;;29.15;12.81
73234;BME280;62293;-26.174;27.908;2022-08-11T13:16:06;83682.96;;;30.11;13.03
73234;BME280;62293;-26.174;27.908;2022-08-11T13:20:56;83677.42;;;28.63;13.60
73234;BME280;62293;-26.174;27.908;2022-08-11T13:23:17;83677.25;;;29.40;12.77
73234;BME280;62293;-26.174;27.908;2022-08-11T13:25:44;83673.26;;;29.99;12.39
73234;BME280;62293;-26.174;27.908;2022-08-11T13:30:35;83671.90;;;28.67;13.82
73234;BME280;62293;-26.174;27.908;2022-08-11T13:33:08;83673.78;;;29.79;12.50
73234;BME280;62293;-26.174;27.908;2022-08-11T13:35:25;83672.98;;;29.31;12.37
73234;BME280;62293;-26.174;27.908;2022-08-11T13:40:18;83673.93;;;29.99;12.41
73234;BME280;62293;-26.174;27.908;2022-08-11T13:42:41;83670.83;;;29.18;12.76
73234;BME280;62293;-26.174;27.908;2022-08-11T13:45:07;83668.76;;;29.60;12.15
73234;BME280;62293;-26.174;27.908;2022-08-11T13:47:38;83670.25;;;28.52;12.61
73234;BME280;62293;-26.174;27.908;2022-08-11T13:49:59;83668.94;;;28.97;12.46
73234;BME280;62293;-26.174;27.908;2022-08-11T13:52:22;83668.89;;;28.74;12.54
73234;BME280;62293;-26.174;27.908;2022-08-11T13:54:48;83669.42;;;28.35;12.66
73234;BME280;62293;-26.174;27.908;2022-08-11T13:57:14;83667.41;;;27.59;13.32
73234;BME280;62293;-26.174;27.908;2022-08-11T13:59:41;83672.80;;;27.93;13.06
73234;BME280;62293;-26.174;27.908;2022-08-11T14:02:07;83676.07;;;27.56;12.95
73234;BME280;62293;-26.174;27.908;2022-08-11T14:04:31;83678.29;;;28.13;12.84
73234;BME280;62293;-26.174;27.908;2022-08-11T14:06:55;83678.18;;;27.76;13.18
73234;BME280;62293;-26.174;27.908;2022-08-11T14:09:25;83679.60;;;27.73;13.30
73234;BME280;62293;-26.174;27.908;2022-08-11T14:11:47;83683.03;;;28.25;13.02
73234;BME280;62293;-26.174;27.908;2022-08-11T14:14:15;83684.31;;;27.34;13.43
73234;BME280;62293;-26.174;27.908;2022-08-11T14:16:39;83682.68;;;27.60;13.55
73234;BME280;62293;-26.174;27.908;2022-08-11T14:19:04;83678.95;;;27.87;13.49
73234;BME280;62293;-26.174;27.908;2022-08-11T14:21:26;83679.62;;;28.07;13.19
73234;BME280;62293;-26.174;27.908;2022-08-11T14:23:52;83677.90;;;26.96;13.79
73234;BME280;62293;-26.174;27.908;2022-08-11T14:26:17;83676.14;;;27.90;13.28
73234;BME280;62293;-26.174;27.908;2022-08-11T14:28:42;83675.41;;;27.19;13.84
73234;BME280;62293;-26.174;27.908;2022-08-11T14:31:08;83673.55;;;28.21;13.33
73234;BME280;62293;-26.174;27.908;2022-08-11T14:33:33;83671.81;;;27.73;13.63
73234;BME280;62293;-26.174;27.908;2022-08-11T14:35:58;83671.54;;;28.40;13.33
73234;BME280;62293;-26.174;27.908;2022-08-11T14:38:22;83671.12;;;28.39;13.36